Time;durP1;ratioP1;P1;durP2;ratioP2;P2;SDS_P1;SDS_P2;PMS_P1;PMS_P2;Temp;Humidity;BMP_temperature;BMP_pressure;BME280_temperature;BME280_humidity;BME280_pressure;Samples;Min_cycle;Max_cycle;Signal;HPM_P1;HPM_P2
2021/03/15 00:02:52;;;;;;;45.48;16.90;;;;;;;1.30;79.28;98122.70;2178504;81;21296;-68
2021/03/15 00:05:54;;;;;;;44.98;16.32;;;;;;;1.33;79.33;98119.17;2178724;81;21308;-72
2021/03/15 00:08:56;;;;;;;44.35;16.12;;;;;;;1.32;79.40;98127.81;2178506;81;21284;-71
2021/03/15 00:11:58;;;;;;;38.02;13.58;;;;;;;1.37;79.46;98128.05;2178543;81;21721;-70
2021/03/15 00:15:00;;;;;;;33.73;12.55;;;;;;;1.38;79.12;98125.03;2178770;81;21278;-68
2021/03/15 00:18:02;;;;;;;35.73;13.10;;;;;;;1.31;78.81;98134.73;2178500;81;21272;-68
2021/03/15 00:21:04;;;;;;;32.20;12.43;;;;;;;1.25;78.85;98140.55;2178487;81;21261;-66
2021/03/15 00:24:06;;;;;;;39.30;13.10;;;;;;;1.19;78.93;98135.14;2178790;81;21285;-67
2021/03/15 00:27:08;;;;;;;34.48;12.65;;;;;;;1.16;78.98;98141.25;2178507;81;21272;-67
2021/03/15 00:30:10;;;;;;;36.63;14.03;;;;;;;1.18;79.11;98142.52;2178469;81;21277;-66
2021/03/15 00:33:12;;;;;;;35.85;14.00;;;;;;;1.23;79.19;98143.19;2178605;81;21700;-66
2021/03/15 00:36:14;;;;;;;35.58;12.78;;;;;;;1.28;79.04;98137.85;2178458;81;21732;-66
2021/03/15 00:39:16;;;;;;;36.08;13.38;;;;;;;1.26;79.25;98141.78;2178447;81;21127;-66
2021/03/15 00:42:18;;;;;;;38.65;13.72;;;;;;;1.04;79.57;98144.26;2178478;81;21260;-66
2021/03/15 00:45:20;;;;;;;35.00;13.98;;;;;;;0.92;79.80;98145.94;2178604;81;21593;-67
2021/03/15 00:48:23;;;;;;;37.35;13.22;;;;;;;0.86;80.14;98141.82;2178870;81;21570;-65
2021/03/15 00:51:25;;;;;;;36.33;14.60;;;;;;;0.86;80.76;98146.98;2178733;81;21301;-68
2021/03/15 00:54:27;;;;;;;38.95;14.70;;;;;;;0.82;80.75;98141.52;2178475;81;21289;-71
2021/03/15 00:57:29;;;;;;;36.98;14.07;;;;;;;0.74;81.01;98135.78;2178429;81;21281;-67
2021/03/15 01:00:31;;;;;;;41.05;15.25;;;;;;;0.74;80.71;98125.00;2178816;81;21194;-67
2021/03/15 01:03:33;;;;;;;36.65;13.95;;;;;;;0.77;80.68;98119.73;2178496;81;21273;-67
2021/03/15 01:06:35;;;;;;;40.90;14.83;;;;;;;0.85;80.32;98122.91;2178435;81;21747;-65
2021/03/15 01:09:37;;;;;;;35.63;15.30;;;;;;;0.95;80.20;98124.75;2178552;81;21726;-66
2021/03/15 01:12:39;;;;;;;38.33;15.30;;;;;;;0.94;80.20;98111.44;2178482;81;21744;-66
2021/03/15 01:15:41;;;;;;;38.75;16.07;;;;;;;0.85;80.00;98114.34;2178605;81;21273;-66
2021/03/15 01:18:43;;;;;;;42.48;17.48;;;;;;;0.88;79.98;98111.64;2178514;81;21325;-66
2021/03/15 01:21:45;;;;;;;42.45;17.65;;;;;;;0.89;80.61;98104.73;2178487;81;21284;-66
2021/03/15 01:24:47;;;;;;;39.08;15.00;;;;;;;0.91;80.46;98094.75;2178369;81;21308;-66
2021/03/15 01:27:49;;;;;;;39.78;15.65;;;;;;;0.81;80.00;98099.83;2178505;81;21740;-67
2021/03/15 01:30:51;;;;;;;41.28;15.98;;;;;;;0.68;80.32;98105.39;2178425;81;21824;-66
2021/03/15 01:33:53;;;;;;;42.43;16.73;;;;;;;0.82;80.60;98104.08;2178447;81;21716;-66
2021/03/15 01:36:55;;;;;;;36.55;14.63;;;;;;;0.91;80.21;98103.80;2178554;81;21293;-65
2021/03/15 01:39:57;;;;;;;43.15;16.05;;;;;;;1.00;79.98;98102.17;2178430;81;21745;-67
2021/03/15 01:42:59;;;;;;;40.33;16.37;;;;;;;1.03;80.26;98103.39;2178475;81;21256;-66
2021/03/15 01:46:01;;;;;;;39.13;16.30;;;;;;;0.90;80.45;98093.52;2178457;81;21265;-65
2021/03/15 01:49:03;;;;;;;38.98;16.27;;;;;;;0.77;80.41;98094.38;2178445;82;21288;-66
2021/03/15 01:52:05;;;;;;;39.42;15.25;;;;;;;0.65;80.41;98095.63;2178489;81;21293;-66
2021/03/15 01:55:07;;;;;;;37.42;16.23;;;;;;;0.46;80.55;98100.08;2178669;81;21312;-66
2021/03/15 01:58:09;;;;;;;51.48;20.80;;;;;;;0.49;80.70;98089.66;2178621;81;21716;-66
2021/03/15 02:01:11;;;;;;;50.55;21.95;;;;;;;0.56;79.78;98090.31;2178671;81;21305;-66
2021/03/15 02:04:14;;;;;;;48.42;19.60;;;;;;;0.50;79.35;98092.64;2178647;81;21131;-67
2021/03/15 02:07:16;;;;;;;45.85;20.95;;;;;;;0.42;79.25;98085.58;2178606;81;21296;-66
2021/03/15 02:10:18;;;;;;;48.40;26.50;;;;;;;0.48;79.24;98081.51;2178724;81;21560;-66
2021/03/15 02:13:20;;;;;;;55.05;25.37;;;;;;;0.49;79.20;98086.24;2178708;81;21713;-69
2021/03/15 02:16:22;;;;;;;45.17;17.95;;;;;;;0.44;78.75;98084.24;2178746;81;21142;-65
2021/03/15 02:19:24;;;;;;;43.95;17.25;;;;;;;0.34;78.53;98090.13;2178543;81;21284;-67
2021/03/15 02:22:26;;;;;;;46.10;18.17;;;;;;;0.19;78.49;98090.60;2178649;82;21241;-66
2021/03/15 02:25:28;;;;;;;44.03;18.10;;;;;;;0.08;78.89;98087.91;2178827;81;21607;-66
2021/03/15 02:28:30;;;;;;;43.87;18.40;;;;;;;0.00;78.92;98084.73;2178611;81;21272;-66
2021/03/15 02:31:32;;;;;;;46.30;17.55;;;;;;;-0.04;79.27;98087.84;2178980;81;21297;-67
2021/03/15 02:34:34;;;;;;;42.40;18.17;;;;;;;-0.04;79.56;98089.59;2151204;82;21285;-66
2021/03/15 02:37:36;;;;;;;40.83;17.37;;;;;;;-0.04;80.08;98089.13;2178973;81;21158;-66
2021/03/15 02:40:38;;;;;;;41.00;16.25;;;;;;;0.09;80.49;98099.92;2178570;81;21265;-68
2021/03/15 02:43:40;;;;;;;48.68;16.77;;;;;;;0.19;80.33;98096.63;2150704;82;21261;-68
2021/03/15 02:46:42;;;;;;;43.83;17.90;;;;;;;0.25;80.27;98096.42;2178634;81;21269;-66
2021/03/15 02:49:44;;;;;;;41.85;17.12;;;;;;;0.37;80.45;98104.68;2178672;81;21277;-66
2021/03/15 02:52:46;;;;;;;37.65;15.72;;;;;;;0.49;80.46;98108.18;2150956;82;21296;-66
2021/03/15 02:55:48;;;;;;;43.90;15.85;;;;;;;0.61;80.02;98105.19;2178684;81;21705;-66
2021/03/15 02:58:50;;;;;;;41.88;16.10;;;;;;;0.77;80.20;98103.41;2178662;81;21705;-66
2021/03/15 03:01:52;;;;;;;43.20;16.45;;;;;;;0.90;80.36;98106.43;2178624;81;21260;-65
2021/03/15 03:04:54;;;;;;;43.15;17.42;;;;;;;1.06;80.14;98105.00;2178554;81;21321;-68
2021/03/15 03:07:56;;;;;;;45.98;17.62;;;;;;;1.11;79.58;98106.99;2178594;81;21720;-66
2021/03/15 03:10:59;;;;;;;;;;;;;;;1.13;79.03;98105.19;2181011;81;21735;-67
2021/03/15 03:14:01;;;;;;;41.48;16.30;;;;;;;1.16;79.36;98098.62;2178618;82;20233;-67
2021/03/15 03:17:03;;;;;;;;;;;;;;;1.21;79.32;98108.36;2181009;81;21288;-67
2021/03/15 03:20:05;;;;;;;40.12;15.83;;;;;;;1.29;79.16;98108.08;2178451;82;20256;-65
2021/03/15 03:23:08;;;;;;;39.35;16.95;;;;;;;1.33;79.36;98106.25;2178667;81;21729;-65
2021/03/15 03:26:11;;;;;;;39.23;15.53;;;;;;;1.36;79.46;98108.27;2178415;81;21171;-66
2021/03/15 03:29:13;;;;;;;37.53;15.98;;;;;;;1.41;79.64;98115.88;2178550;81;21265;-65
2021/03/15 03:32:15;;;;;;;40.50;17.70;;;;;;;1.47;79.60;98112.23;2178700;81;21293;-66
2021/03/15 03:35:17;;;;;;;45.33;19.87;;;;;;;1.48;79.65;98115.20;2178694;81;21269;-66
2021/03/15 03:38:19;;;;;;;35.52;14.50;;;;;;;1.51;79.77;98107.36;2178532;81;21728;-65
2021/03/15 03:41:21;;;;;;;36.03;14.53;;;;;;;1.47;79.58;98110.48;2178526;81;21288;-67
2021/03/15 03:44:23;;;;;;;34.67;14.05;;;;;;;1.41;79.57;98107.27;2178585;81;21273;-70
2021/03/15 03:47:26;;;;;;;38.15;15.98;;;;;;;1.36;79.52;98116.48;2178417;81;21167;-67
2021/03/15 03:50:28;;;;;;;32.95;14.10;;;;;;;1.30;79.49;98114.95;2178554;81;21292;-69
2021/03/15 03:53:30;;;;;;;32.03;14.33;;;;;;;1.27;79.68;98120.69;2178880;81;21142;-66
2021/03/15 03:56:32;;;;;;;33.25;13.53;;;;;;;1.27;79.16;98128.44;2178520;81;21264;-66
2021/03/15 03:59:34;;;;;;;40.43;15.80;;;;;;;1.27;79.16;98128.44;2178528;81;21285;-67
2021/03/15 04:02:36;;;;;;;36.58;14.15;;;;;;;1.26;79.57;98128.03;2178592;81;21265;-67
2021/03/15 04:05:38;;;;;;;35.70;15.23;;;;;;;1.29;79.46;98129.21;2178501;81;21281;-68
2021/03/15 04:08:40;;;;;;;32.13;14.10;;;;;;;1.31;79.46;98128.27;2178554;81;21289;-68
2021/03/15 04:11:42;;;;;;;36.60;15.28;;;;;;;1.37;79.67;98131.09;2178549;81;21288;-67
2021/03/15 04:14:45;;;;;;;35.15;14.80;;;;;;;1.40;79.69;98124.98;2178391;82;21737;-70
2021/03/15 04:17:47;;;;;;;33.28;13.38;;;;;;;1.41;79.18;98132.67;2171894;81;21769;-66
2021/03/15 04:20:49;;;;;;;32.15;14.58;;;;;;;1.36;78.98;98127.64;2161209;82;21816;-67
2021/03/15 04:23:51;;;;;;;33.78;13.68;;;;;;;1.31;79.02;98128.73;2161182;82;21734;-67
2021/03/15 04:26:53;;;;;;;34.63;13.35;;;;;;;1.22;78.91;98135.03;2161063;82;21595;-67
2021/03/15 04:29:55;;;;;;;35.58;14.25;;;;;;;1.14;78.74;98140.92;2161083;82;21599;-66
2021/03/15 04:32:58;;;;;;;33.50;13.83;;;;;;;1.06;78.67;98142.45;2161091;82;21603;-67
2021/03/15 04:36:00;;;;;;;36.13;14.23;;;;;;;1.02;79.10;98145.61;2161155;82;21155;-65
2021/03/15 04:39:02;;;;;;;37.75;14.80;;;;;;;0.97;78.79;98155.23;2161422;82;21282;-66
2021/03/15 04:42:04;;;;;;;41.30;16.90;;;;;;;0.94;79.16;98146.30;2161412;82;21293;-65
2021/03/15 04:45:06;;;;;;;40.95;17.07;;;;;;;1.08;79.33;98152.30;2160997;82;21289;-66
2021/03/15 04:48:11;;;;;;;38.30;15.95;;;;;;;1.11;79.27;98144.45;2161383;82;21573;-67
2021/03/15 04:51:13;;;;;;;35.78;14.45;;;;;;;1.20;79.27;98148.00;2160917;82;21610;-66
2021/03/15 04:54:15;;;;;;;53.78;22.32;;;;;;;1.20;78.28;98140.25;2161056;82;21618;-65
2021/03/15 04:57:17;;;;;;;36.63;14.55;;;;;;;1.12;78.40;98141.41;2161188;82;21166;-66
2021/03/15 05:00:19;;;;;;;39.75;15.63;;;;;;;1.14;78.10;98152.09;2161023;82;21564;-66
2021/03/15 05:03:22;;;;;;;45.52;19.12;;;;;;;0.97;78.06;98150.06;2161160;82;21142;-66
2021/03/15 05:06:23;;;;;;;51.18;21.10;;;;;;;0.95;78.10;98144.55;2161151;82;21321;-67
2021/03/15 05:09:25;;;;;;;48.10;18.67;;;;;;;0.97;78.21;98141.48;2161050;82;21143;-66
2021/03/15 05:12:27;;;;;;;41.95;17.37;;;;;;;0.91;78.07;98142.98;2161163;82;21210;-67
2021/03/15 05:15:30;;;;;;;43.38;18.60;;;;;;;0.87;78.20;98134.48;2161067;82;21099;-66
2021/03/15 05:18:32;;;;;;;40.45;17.27;;;;;;;0.85;78.35;98142.28;2166319;81;21289;-65
2021/03/15 05:21:34;;;;;;;36.30;15.13;;;;;;;0.88;78.40;98133.59;2171578;82;21285;-66
2021/03/15 05:24:36;;;;;;;40.28;18.52;;;;;;;0.91;78.30;98141.70;2142134;82;21281;-67
2021/03/15 05:27:38;;;;;;;47.00;23.38;;;;;;;0.91;78.60;98134.78;2171197;82;21312;-68
2021/03/15 05:30:40;;;;;;;45.73;22.27;;;;;;;0.97;78.66;98141.48;2171052;82;21312;-66
2021/03/15 05:33:42;;;;;;;55.10;22.75;;;;;;;1.03;78.62;98139.98;2171127;82;21264;-66
2021/03/15 05:36:44;;;;;;;57.65;21.57;;;;;;;1.11;78.66;98128.12;2171408;82;21264;-65
2021/03/15 05:39:46;;;;;;;70.47;23.85;;;;;;;1.19;78.75;98137.30;2171134;82;21285;-65
2021/03/15 05:42:48;;;;;;;74.87;23.42;;;;;;;1.34;78.83;98133.79;2171422;82;21284;-66
2021/03/15 05:45:50;;;;;;;89.72;27.87;;;;;;;1.46;78.81;98131.22;2171173;82;21301;-66
2021/03/15 05:48:52;;;;;;;83.05;25.68;;;;;;;1.57;78.90;98129.09;2171281;82;21697;-66
2021/03/15 05:51:54;;;;;;;84.70;28.30;;;;;;;1.68;78.96;98133.44;2171314;82;22477;-67
2021/03/15 05:54:56;;;;;;;83.52;29.32;;;;;;;1.83;79.04;98139.78;2171301;82;21293;-65
2021/03/15 05:57:58;;;;;;;77.17;27.87;;;;;;;1.93;78.67;98139.00;2141572;82;21269;-66
2021/03/15 06:01:00;;;;;;;76.62;28.60;;;;;;;2.02;78.81;98134.77;2171299;82;21260;-66
2021/03/15 06:04:03;;;;;;;64.72;24.82;;;;;;;2.12;78.60;98139.16;2171196;82;21280;-66
2021/03/15 06:07:05;;;;;;;55.03;21.48;;;;;;;2.23;78.90;98142.19;2171275;82;21587;-66
2021/03/15 06:10:07;;;;;;;63.90;23.25;;;;;;;2.43;78.54;98145.30;2171534;82;21693;-65
2021/03/15 06:13:09;;;;;;;55.20;22.13;;;;;;;2.45;78.33;98141.82;2171429;82;21289;-69
2021/03/15 06:16:11;;;;;;;53.92;21.82;;;;;;;2.48;78.38;98142.99;2171548;82;21297;-66
2021/03/15 06:19:13;;;;;;;55.20;20.97;;;;;;;2.49;78.34;98149.40;2164229;82;21315;-66
2021/03/15 06:22:15;;;;;;;49.63;20.27;;;;;;;2.55;78.41;98151.74;2161374;82;21306;-66
2021/03/15 06:25:17;;;;;;;48.33;18.30;;;;;;;2.59;78.46;98153.77;2161359;82;21333;-66
2021/03/15 06:28:19;;;;;;;40.55;17.60;;;;;;;2.74;78.66;98150.58;2161035;82;21166;-66
2021/03/15 06:31:21;;;;;;;40.38;17.05;;;;;;;2.89;78.51;98152.17;2160993;82;21591;-66
2021/03/15 06:34:24;;;;;;;42.50;18.42;;;;;;;3.02;78.50;98148.16;2161481;82;21164;-66
2021/03/15 06:37:26;;;;;;;44.63;18.87;;;;;;;3.15;78.29;98143.75;2140104;82;21305;-65
2021/03/15 06:40:28;;;;;;;43.95;20.60;;;;;;;3.32;78.08;98146.50;2161125;82;21305;-65
2021/03/15 06:43:30;;;;;;;44.10;19.55;;;;;;;3.47;78.16;98137.21;2161226;82;21297;-67
2021/03/15 06:46:32;;;;;;;53.10;23.15;;;;;;;3.66;77.95;98139.84;2161151;82;21313;-66
2021/03/15 06:49:34;;;;;;;48.70;22.30;;;;;;;3.81;77.70;98140.47;2161262;82;21254;-68
2021/03/15 06:52:35;;;;;;;49.75;23.73;;;;;;;3.95;77.50;98141.16;2161256;82;21302;-65
2021/03/15 06:55:37;;;;;;;38.13;17.52;;;;;;;4.16;77.45;98135.89;2161304;82;21321;-65
2021/03/15 06:58:39;;;;;;;39.40;17.17;;;;;;;4.37;77.00;98139.27;2161146;82;21273;-66
2021/03/15 07:01:41;;;;;;;42.00;18.05;;;;;;;4.51;76.51;98137.30;2161419;82;21285;-66
2021/03/15 07:04:43;;;;;;;39.48;17.60;;;;;;;4.59;76.63;98134.36;2161180;82;21286;-66
2021/03/15 07:07:45;;;;;;;43.15;19.95;;;;;;;4.58;76.46;98146.48;2161139;82;21171;-68
2021/03/15 07:10:47;;;;;;;43.85;20.88;;;;;;;4.61;76.21;98154.16;2161129;82;21684;-67
2021/03/15 07:13:49;;;;;;;53.28;24.32;;;;;;;4.63;75.90;98151.02;2161138;82;21276;-67
2021/03/15 07:16:52;;;;;;;51.50;20.97;;;;;;;4.63;75.92;98150.19;2161171;82;21151;-67
2021/03/15 07:19:54;;;;;;;39.98;18.27;;;;;;;4.50;75.54;98149.92;2156710;81;21297;-66
2021/03/15 07:22:56;;;;;;;44.18;18.98;;;;;;;4.54;76.14;98154.50;2188223;81;21284;-67
2021/03/15 07:25:58;;;;;;;37.75;16.67;;;;;;;4.64;75.11;98156.60;2188524;81;21299;-66
2021/03/15 07:29:00;;;;;;;43.60;17.20;;;;;;;4.58;75.87;98154.73;2188547;81;21277;-66
2021/03/15 07:32:02;;;;;;;40.55;16.52;;;;;;;4.43;74.45;98155.84;2188197;81;21268;-68
2021/03/15 07:35:04;;;;;;;41.35;17.98;;;;;;;4.30;75.34;98156.04;2188217;81;21285;-67
2021/03/15 07:38:06;;;;;;;42.80;17.60;;;;;;;4.26;75.93;98156.63;2188512;81;21308;-67
2021/03/15 07:41:08;;;;;;;40.10;17.05;;;;;;;4.22;75.58;98156.84;2188201;81;21289;-66
2021/03/15 07:44:11;;;;;;;39.48;15.95;;;;;;;4.29;75.44;98158.23;2160244;81;21130;-66
2021/03/15 07:47:13;;;;;;;37.42;17.07;;;;;;;4.40;75.03;98167.67;2188313;81;21303;-66
2021/03/15 07:50:15;;;;;;;37.03;16.02;;;;;;;4.38;75.86;98165.59;2188150;81;21276;-67
2021/03/15 07:53:17;;;;;;;37.20;16.02;;;;;;;4.38;75.42;98164.77;2188417;81;21277;-65
2021/03/15 07:56:19;;;;;;;37.70;16.05;;;;;;;4.50;75.26;98168.09;2188182;81;21589;-66
2021/03/15 07:59:21;;;;;;;36.17;16.17;;;;;;;4.43;74.44;98168.00;2188159;81;21724;-67
2021/03/15 08:02:23;;;;;;;37.78;15.32;;;;;;;4.45;75.90;98165.72;2188175;81;21269;-66
2021/03/15 08:05:25;;;;;;;32.83;15.48;;;;;;;4.74;76.41;98169.14;2188141;81;21292;-66
2021/03/15 08:08:27;;;;;;;33.63;14.75;;;;;;;4.84;74.40;98169.94;2188150;81;21292;-66
2021/03/15 08:11:29;;;;;;;34.67;14.15;;;;;;;4.84;73.52;98163.87;2188534;81;21296;-66
2021/03/15 08:14:31;;;;;;;33.42;15.13;;;;;;;4.90;73.55;98167.50;2188225;81;21742;-67
2021/03/15 08:17:34;;;;;;;31.48;13.78;;;;;;;4.86;74.33;98167.27;2188269;81;21697;-66
2021/03/15 08:20:36;;;;;;;36.35;14.98;;;;;;;4.84;73.31;98167.34;2179122;81;21288;-68
2021/03/15 08:23:37;;;;;;;31.45;12.55;;;;;;;4.97;73.57;98165.42;2178510;81;21313;-67
2021/03/15 08:26:40;;;;;;;33.60;13.93;;;;;;;5.29;74.11;98164.33;2178575;81;21296;-67
2021/03/15 08:29:42;;;;;;;29.77;12.58;;;;;;;5.72;72.93;98160.84;2178483;82;21261;-67
2021/03/15 08:32:44;;;;;;;29.27;11.55;;;;;;;6.15;71.14;98158.61;2178523;81;21614;-68
2021/03/15 08:35:46;;;;;;;42.93;18.07;;;;;;;6.31;71.01;98150.80;2178587;81;21736;-66
2021/03/15 08:38:48;;;;;;;42.10;19.10;;;;;;;6.66;72.52;98153.22;2178586;81;21722;-66
2021/03/15 08:41:50;;;;;;;36.45;16.87;;;;;;;7.05;71.68;98149.76;2178519;81;21736;-66
2021/03/15 08:44:52;;;;;;;35.23;15.18;;;;;;;7.48;71.68;98147.73;2178548;81;21281;-67
2021/03/15 08:47:57;;;;;;;29.90;12.33;;;;;;;7.84;68.99;98149.06;2178587;81;21717;-69
2021/03/15 08:50:59;;;;;;;29.92;11.88;;;;;;;7.91;67.42;98144.67;2179069;81;21157;-67
2021/03/15 08:54:01;;;;;;;27.73;11.88;;;;;;;7.74;67.40;98144.41;2178362;81;21289;-67
2021/03/15 08:57:03;;;;;;;31.17;11.88;;;;;;;7.78;66.30;98147.66;2150839;82;21289;-68
2021/03/15 09:00:05;;;;;;;30.02;12.10;;;;;;;7.72;67.07;98149.34;2178487;81;21288;-66
2021/03/15 09:03:07;;;;;;;27.65;11.35;;;;;;;7.75;66.55;98145.24;2178456;81;21764;-66
2021/03/15 09:06:09;;;;;;;26.05;10.88;;;;;;;7.83;66.73;98142.16;2178456;81;21720;-66
2021/03/15 09:09:11;;;;;;;29.92;12.82;;;;;;;7.72;65.84;98136.30;2178407;81;21725;-66
2021/03/15 09:12:14;;;;;;;25.12;9.23;;;;;;;7.70;65.27;98139.00;2178586;82;21130;-66
2021/03/15 09:15:16;;;;;;;28.42;11.18;;;;;;;7.87;63.17;98131.91;2178500;81;21289;-65
2021/03/15 09:18:18;;;;;;;25.88;10.25;;;;;;;7.94;64.87;98135.38;2178403;81;21289;-66
2021/03/15 09:21:20;;;;;;;23.32;9.03;;;;;;;8.49;64.34;98126.33;2178514;81;21277;-66
2021/03/15 09:24:22;;;;;;;26.73;10.75;;;;;;;8.55;65.15;98124.66;2178822;81;21296;-65
2021/03/15 09:27:26;;;;;;;26.00;11.15;;;;;;;8.84;61.14;98123.25;2178895;82;21127;-66
2021/03/15 09:30:30;;;;;;;25.10;9.20;;;;;;;9.17;63.30;98119.36;2178451;81;21305;-67
2021/03/15 09:33:32;;;;;;;23.92;7.75;;;;;;;9.14;62.89;98116.47;2178349;81;21137;-66
2021/03/15 09:36:36;;;;;;;22.10;7.58;;;;;;;8.80;58.60;98118.67;2178425;81;21272;-65
2021/03/15 09:39:38;;;;;;;25.72;8.43;;;;;;;8.29;58.98;98112.74;2178300;81;21740;-66
2021/03/15 09:42:40;;;;;;;23.15;8.38;;;;;;;7.84;59.00;98121.17;2178420;81;21280;-67
2021/03/15 09:45:42;;;;;;;25.75;8.58;;;;;;;7.79;60.53;98115.41;2178380;82;21139;-66
2021/03/15 09:48:46;;;;;;;23.73;8.85;;;;;;;7.93;59.33;98120.63;2178414;81;21304;-67
2021/03/15 09:51:49;;;;;;;28.35;11.18;;;;;;;7.79;59.50;98124.07;2178307;81;21729;-68
2021/03/15 09:54:52;;;;;;;32.40;13.30;;;;;;;7.54;61.51;98110.37;2178295;81;21289;-66
2021/03/15 09:57:54;;;;;;;33.60;14.13;;;;;;;7.33;62.51;98115.57;2178326;81;21305;-66
2021/03/15 10:00:56;;;;;;;33.20;12.93;;;;;;;7.26;61.69;98108.56;2178475;81;21284;-67
2021/03/15 10:03:58;;;;;;;27.45;11.55;;;;;;;7.32;62.80;98104.75;2178433;81;21292;-66
2021/03/15 10:07:00;;;;;;;25.55;11.15;;;;;;;7.40;62.16;98097.31;2178674;81;21316;-66
2021/03/15 10:10:02;;;;;;;29.07;11.60;;;;;;;7.41;61.84;98099.83;2178902;82;21277;-66
2021/03/15 10:13:05;;;;;;;30.75;11.80;;;;;;;7.58;61.26;98100.58;2178881;81;21265;-66
2021/03/15 10:16:06;;;;;;;30.50;12.23;;;;;;;7.68;61.46;98097.78;2178646;81;21285;-66
2021/03/15 10:19:09;;;;;;;25.75;10.40;;;;;;;8.34;62.38;98092.84;2173610;81;21163;-66
2021/03/15 10:22:11;;;;;;;27.13;10.65;;;;;;;9.07;58.32;98092.96;2140220;82;21277;-66
2021/03/15 10:25:13;;;;;;;29.25;11.55;;;;;;;9.07;54.91;98103.42;2161153;82;21487;-68
2021/03/15 10:28:15;;;;;;;29.18;12.33;;;;;;;8.54;54.65;98099.45;2161518;82;21281;-67
2021/03/15 10:31:17;;;;;;;27.17;9.65;;;;;;;8.26;57.56;98094.66;2161272;82;21171;-66
2021/03/15 10:34:19;;;;;;;26.30;11.30;;;;;;;8.27;55.18;98103.31;2161310;82;21258;-66
2021/03/15 10:37:21;;;;;;;27.90;11.10;;;;;;;8.11;58.02;98099.05;2161197;82;21266;-66
2021/03/15 10:40:23;;;;;;;29.07;11.80;;;;;;;8.09;58.39;98088.34;2161551;82;21282;-66
2021/03/15 10:43:25;;;;;;;26.93;9.65;;;;;;;8.36;58.67;98087.52;2161570;82;21265;-66
2021/03/15 10:46:29;;;;;;;26.73;10.23;;;;;;;8.28;56.07;98094.07;2161201;82;21641;-66
2021/03/15 10:49:31;;;;;;;27.37;10.28;;;;;;;7.82;57.23;98090.42;2161067;82;21301;-66
2021/03/15 10:52:34;;;;;;;27.85;10.50;;;;;;;7.69;57.82;98091.63;2161188;82;21280;-66
2021/03/15 10:55:36;;;;;;;26.77;11.15;;;;;;;7.61;58.91;98092.11;2161517;82;21277;-67
2021/03/15 10:58:38;;;;;;;26.00;10.38;;;;;;;7.54;58.70;98082.97;2161139;82;21309;-68
2021/03/15 11:01:40;;;;;;;24.65;9.25;;;;;;;7.56;56.70;98081.09;2160780;82;21151;-66
2021/03/15 11:04:42;;;;;;;27.22;10.20;;;;;;;7.67;58.43;98078.30;2161268;82;21269;-66
2021/03/15 11:07:46;;;;;;;29.52;10.25;;;;;;;7.87;57.84;98075.77;2161488;82;21135;-67
2021/03/15 11:10:48;;;;;;;26.35;11.35;;;;;;;8.13;58.91;98078.05;2161044;82;21171;-68
2021/03/15 11:13:50;;;;;;;24.20;9.55;;;;;;;8.57;57.43;98069.19;2161169;82;21132;-67
2021/03/15 11:16:52;;;;;;;25.12;9.55;;;;;;;8.67;56.54;98061.59;2161168;82;21155;-69
2021/03/15 11:19:54;;;;;;;23.47;8.18;;;;;;;8.87;57.63;98062.06;2169035;81;21347;-67
2021/03/15 11:22:56;;;;;;;20.15;6.70;;;;;;;9.04;56.14;98055.69;2178578;81;21309;-67
2021/03/15 11:25:58;;;;;;;22.22;7.58;;;;;;;8.83;51.76;98057.49;2178567;81;21710;-67
2021/03/15 11:29:00;;;;;;;23.87;8.13;;;;;;;8.42;52.99;98046.61;2178560;81;21734;-66
2021/03/15 11:32:02;;;;;;;24.60;7.87;;;;;;;8.20;53.55;98054.52;2178583;81;21154;-66
2021/03/15 11:35:04;;;;;;;22.87;7.05;;;;;;;8.12;53.61;98048.97;2178578;81;21308;-68
2021/03/15 11:38:06;;;;;;;21.87;7.75;;;;;;;8.04;52.50;98050.74;2178661;81;21132;-69
2021/03/15 11:41:08;;;;;;;22.17;8.03;;;;;;;7.90;55.60;98052.07;2178511;82;21301;-67
2021/03/15 11:44:10;;;;;;;22.35;7.65;;;;;;;8.00;55.43;98053.17;2178552;81;21107;-66
2021/03/15 11:47:12;;;;;;;22.40;7.28;;;;;;;8.07;55.95;98043.19;2178581;81;21610;-67
2021/03/15 11:50:14;;;;;;;20.02;7.08;;;;;;;8.15;55.70;98044.85;2178515;81;21261;-66
2021/03/15 11:53:18;;;;;;;23.38;7.72;;;;;;;8.20;55.39;98044.55;2178422;81;21166;-66
2021/03/15 11:56:20;;;;;;;22.82;8.20;;;;;;;8.13;54.71;98046.70;2178895;81;21292;-66
2021/03/15 11:59:22;;;;;;;;;;;;;;;8.07;55.54;98037.48;2180955;81;21257;-66
2021/03/15 12:02:24;;;;;;;24.35;8.98;;;;;;;8.03;55.88;98039.09;2178676;82;20229;-66
2021/03/15 12:05:27;;;;;;;25.37;8.83;;;;;;;8.05;55.18;98035.93;2178582;81;21300;-67
2021/03/15 12:08:29;;;;;;;24.70;9.05;;;;;;;8.17;56.07;98039.05;2178613;81;21280;-66
2021/03/15 12:11:31;;;;;;;23.70;8.80;;;;;;;8.28;55.26;98022.22;2178647;81;21693;-66
2021/03/15 12:14:33;;;;;;;24.67;8.93;;;;;;;8.41;56.21;98021.44;2178883;81;21131;-66
2021/03/15 12:17:35;;;;;;;25.97;9.70;;;;;;;8.57;55.66;98018.22;2178447;81;21273;-70
2021/03/15 12:20:37;;;;;;;22.60;7.58;;;;;;;8.63;55.51;98020.45;2168117;81;21314;-68
2021/03/15 12:23:39;;;;;;;23.25;8.90;;;;;;;8.64;53.59;98012.95;2139964;82;21258;-66
2021/03/15 12:26:41;;;;;;;23.07;8.15;;;;;;;8.51;53.89;98007.34;2161089;82;21162;-67
2021/03/15 12:29:43;;;;;;;22.87;8.10;;;;;;;8.43;54.44;98003.42;2161060;82;21144;-66
2021/03/15 12:32:45;;;;;;;21.95;7.95;;;;;;;8.61;55.88;98001.39;2161333;82;21261;-66
2021/03/15 12:35:47;;;;;;;21.97;7.53;;;;;;;8.67;54.76;97999.67;2161118;82;21139;-68
2021/03/15 12:38:49;;;;;;;25.37;8.35;;;;;;;8.80;53.04;98002.79;2161069;82;21143;-66
2021/03/15 12:41:52;;;;;;;23.40;7.78;;;;;;;8.78;52.96;97996.84;2161108;82;21285;-67
2021/03/15 12:44:54;;;;;;;22.05;8.08;;;;;;;8.92;53.93;97994.58;2161219;82;21431;-69
2021/03/15 12:47:56;;;;;;;21.55;7.33;;;;;;;9.26;54.42;97996.22;2161099;82;21309;-67
2021/03/15 12:50:58;;;;;;;22.55;8.35;;;;;;;9.80;54.12;98000.34;2161118;82;21167;-67
2021/03/15 12:54:00;;;;;;;23.65;8.13;;;;;;;9.83;53.13;98002.25;2161098;82;21147;-67
2021/03/15 12:57:02;;;;;;;21.77;7.78;;;;;;;9.76;53.26;98003.63;2161084;82;21127;-66
2021/03/15 13:00:04;;;;;;;;;;;;;;;9.75;50.93;98000.64;2163523;82;21591;-66
2021/03/15 13:03:06;;;;;;;23.02;8.50;;;;;;;9.60;52.55;98006.98;2161280;82;20497;-66
2021/03/15 13:06:08;;;;;;;22.22;8.35;;;;;;;9.74;51.43;98005.98;2161142;82;21734;-66
2021/03/15 13:09:10;;;;;;;23.12;8.33;;;;;;;9.93;51.96;98010.75;2161059;82;21103;-67
2021/03/15 13:12:12;;;;;;;22.48;7.60;;;;;;;10.34;51.25;98001.27;2161459;82;21159;-67
2021/03/15 13:15:17;;;;;;;23.27;8.30;;;;;;;10.99;47.64;98003.48;2160926;82;21167;-66
2021/03/15 13:18:19;;;;;;;21.68;8.25;;;;;;;10.46;48.46;98010.02;2161059;82;21127;-66
2021/03/15 13:21:21;;;;;;;22.10;7.67;;;;;;;10.11;51.52;98002.05;2160995;81;21623;-66
2021/03/15 13:24:23;;;;;;;21.87;8.00;;;;;;;10.23;51.06;98002.01;2161071;82;21579;-66
2021/03/15 13:27:25;;;;;;;24.18;8.43;;;;;;;10.17;52.28;97995.91;2161006;82;21630;-66
2021/03/15 13:30:27;;;;;;;24.85;8.45;;;;;;;10.06;51.80;97995.36;2161150;82;21662;-66
2021/03/15 13:33:29;;;;;;;21.48;7.25;;;;;;;10.13;52.28;97991.84;2161064;82;21152;-66
2021/03/15 13:36:31;;;;;;;19.92;6.62;;;;;;;10.26;51.16;97999.64;2161065;82;21107;-66
2021/03/15 13:39:34;;;;;;;;;;;;;;;10.36;51.20;98001.16;2163448;82;21151;-65
2021/03/15 13:42:36;;;;;;;19.32;6.28;;;;;;;10.38;50.13;98000.55;2140272;82;20135;-68
2021/03/15 13:45:38;;;;;;;18.05;5.62;;;;;;;10.10;49.55;97989.44;2161001;82;21599;-66
2021/03/15 13:48:40;;;;;;;18.02;5.10;;;;;;;9.99;49.80;97998.55;2161097;82;21131;-68
2021/03/15 13:51:42;;;;;;;18.82;5.50;;;;;;;9.61;47.58;97995.53;2140097;82;21281;-71
2021/03/15 13:54:44;;;;;;;18.82;5.70;;;;;;;9.12;48.46;98000.62;2161233;82;21281;-67
2021/03/15 13:57:46;;;;;;;22.67;6.37;;;;;;;9.00;49.97;97998.34;2161209;82;21353;-69
2021/03/15 14:00:48;;;;;;;20.65;6.30;;;;;;;9.21;50.53;97995.69;2161234;82;21650;-69
2021/03/15 14:03:51;;;;;;;22.07;5.83;;;;;;;9.40;51.07;97987.42;2161229;82;21285;-67
2021/03/15 14:06:53;;;;;;;19.52;5.60;;;;;;;9.40;51.07;97987.42;2161010;81;21123;-67
2021/03/15 14:09:55;;;;;;;18.70;5.85;;;;;;;9.55;50.12;97994.19;2161678;82;21274;-68
2021/03/15 14:12:58;;;;;;;20.43;6.22;;;;;;;9.48;49.59;98000.34;2161240;82;21782;-69